createdAt,value
2018-05-29T00:00:00.109Z,100323.78
2018-05-29T00:01:05.879Z,100326.46
2018-05-29T00:02:11.695Z,100320.61
2018-05-29T00:03:17.508Z,100321.71
2018-05-29T00:04:23.293Z,100325.60
2018-05-29T00:05:29.065Z,100319.83
2018-05-29T00:06:35.601Z,100322.19
2018-05-29T00:07:42.140Z,100322.77
2018-05-29T00:08:47.932Z,100326.35
2018-05-29T00:09:54.467Z,100321.08
2018-05-29T00:11:00.240Z,100317.48
2018-05-29T00:12:05.679Z,100317.76
2018-05-29T00:13:11.444Z,100317.83
2018-05-29T00:14:17.247Z,100321.50
2018-05-29T00:15:23.787Z,100321.57
2018-05-29T00:16:29.555Z,100315.88
2018-05-29T00:17:35.335Z,100316.37
2018-05-29T00:18:41.108Z,100323.31
2018-05-29T00:19:46.912Z,100321.63
2018-05-29T00:20:52.692Z,100317.28
2018-05-29T00:21:58.470Z,100316.62
2018-05-29T00:23:04.268Z,100321.05
2018-05-29T00:24:10.053Z,100312.32
2018-05-29T00:25:15.848Z,100314.35
2018-05-29T00:26:21.619Z,100314.17
2018-05-29T00:27:28.161Z,100311.75
2018-05-29T00:28:33.930Z,100312.39
2018-05-29T00:29:40.468Z,100314.23
2018-05-29T00:30:46.275Z,100312.81
2018-05-29T00:31:52.501Z,100317.50
2018-05-29T00:32:58.281Z,100317.03
2018-05-29T00:34:04.041Z,100314.35
2018-05-29T00:35:09.814Z,100315.10
2018-05-29T00:36:15.643Z,100314.19
2018-05-29T00:37:22.188Z,100315.10
2018-05-29T00:38:27.970Z,100310.74
2018-05-29T00:39:33.744Z,100311.09
2018-05-29T00:40:39.521Z,100310.32
2018-05-29T00:41:46.851Z,100309.48
2018-05-29T00:42:52.810Z,100314.90
2018-05-29T00:43:58.587Z,100306.70
2018-05-29T00:45:04.801Z,100308.19
2018-05-29T00:46:10.575Z,100304.03
2018-05-29T00:47:17.137Z,100305.52
2018-05-29T00:48:22.907Z,100301.34
2018-05-29T00:49:28.347Z,100297.63
2018-05-29T00:50:34.867Z,100300.47
2018-05-29T00:51:40.645Z,100297.17
2018-05-29T00:52:46.458Z,100297.36
2018-05-29T00:53:53.003Z,100295.69
2018-05-29T00:55:15.528Z,100297.50
2018-05-29T00:56:21.301Z,100296.07
2018-05-29T00:57:27.075Z,100296.56
2018-05-29T00:58:32.868Z,100298.81
2018-05-29T00:59:38.649Z,100292.62
2018-05-29T01:00:44.099Z,100292.42
2018-05-29T01:01:49.873Z,100294.92
2018-05-29T01:02:55.647Z,100297.70
2018-05-29T01:04:02.210Z,100296.06
2018-05-29T01:05:07.996Z,100291.77
2018-05-29T01:06:13.769Z,100289.73
2018-05-29T01:07:19.546Z,100293.98
2018-05-29T01:08:26.085Z,100288.75
2018-05-29T01:09:31.880Z,100285.98
2018-05-29T01:10:37.656Z,100290.14
2018-05-29T01:11:43.419Z,100280.86
2018-05-29T01:12:49.960Z,100285.70
2018-05-29T01:13:55.739Z,100290.36
2018-05-29T01:15:01.544Z,100282.66
2018-05-29T01:16:08.105Z,100280.41
2018-05-29T01:17:13.867Z,100283.65
2018-05-29T01:18:20.407Z,100286.64
2018-05-29T01:19:26.174Z,100284.88
2018-05-29T01:20:32.735Z,100283.12
2018-05-29T01:21:39.270Z,100279.61
2018-05-29T01:22:45.057Z,100281.44
2018-05-29T01:23:50.829Z,100278.42
2018-05-29T01:24:56.644Z,100283.42
2018-05-29T01:26:02.438Z,100284.16
2018-05-29T01:27:08.220Z,100281.21
2018-05-29T01:28:13.989Z,100276.47
2018-05-29T01:29:19.761Z,100282.45
2018-05-29T01:30:25.541Z,100274.62
2018-05-29T01:31:32.113Z,100276.02
2018-05-29T01:32:37.881Z,100274.20
2018-05-29T01:33:43.674Z,100272.37
2018-05-29T01:34:50.217Z,100276.58
2018-05-29T01:35:55.983Z,100267.30
2018-05-29T01:37:02.548Z,100269.97
2018-05-29T01:38:09.090Z,100265.52
2018-05-29T01:39:15.670Z,100262.17
2018-05-29T01:40:22.198Z,100266.03
2018-05-29T01:41:27.963Z,100262.59
2018-05-29T01:42:34.529Z,100264.60
2018-05-29T01:43:41.074Z,100266.72
2018-05-29T01:44:47.623Z,100262.81
2018-05-29T01:45:54.164Z,100264.58
2018-05-29T01:46:59.931Z,100259.84
2018-05-29T01:48:05.518Z,100262.58
2018-05-29T01:49:11.290Z,100248.10
2018-05-29T01:50:17.063Z,100255.94
2018-05-29T01:51:23.619Z,100258.48
2018-05-29T01:52:30.174Z,100255.48
2018-05-29T01:53:35.955Z,100251.27
2018-05-29T01:54:41.724Z,100254.02
2018-05-29T01:55:47.499Z,100253.17
2018-05-29T01:56:54.035Z,100253.70
2018-05-29T01:57:59.807Z,100250.33
2018-05-29T01:59:06.367Z,100246.39
2018-05-29T02:00:12.900Z,100247.23
2018-05-29T02:01:18.674Z,100245.59
2018-05-29T02:02:25.198Z,100247.27
2018-05-29T02:03:30.972Z,100249.94
2018-05-29T02:04:37.565Z,100241.69
2018-05-29T02:05:43.523Z,100244.78
2018-05-29T02:06:49.309Z,100243.55
2018-05-29T02:07:55.074Z,100240.14
2018-05-29T02:09:01.611Z,100241.38
2018-05-29T02:10:08.625Z,100245.66
2018-05-29T02:11:14.400Z,100239.38
2018-05-29T02:12:20.182Z,100242.36
2018-05-29T02:13:26.715Z,100239.91
2018-05-29T02:14:34.002Z,100244.19
2018-05-29T02:15:39.800Z,100240.89
2018-05-29T02:16:45.570Z,100242.12
2018-05-29T02:17:51.335Z,100241.28
2018-05-29T02:18:57.106Z,100240.44
2018-05-29T02:20:02.883Z,100242.82
2018-05-29T02:21:08.683Z,100235.73
2018-05-29T02:22:14.471Z,100239.31
2018-05-29T02:23:20.334Z,100237.48
2018-05-29T02:24:26.112Z,100235.87
2018-05-29T02:25:31.904Z,100235.17
2018-05-29T02:26:37.695Z,100239.41
2018-05-29T02:27:43.475Z,100235.91
2018-05-29T02:28:49.232Z,100235.62
2018-05-29T02:29:55.003Z,100233.41
2018-05-29T02:31:01.546Z,100231.94
2018-05-29T02:32:07.340Z,100238.61
2018-05-29T02:33:13.116Z,100233.97
2018-05-29T02:34:18.896Z,100233.13
2018-05-29T02:35:25.102Z,100230.45
2018-05-29T02:36:30.906Z,100232.18
2018-05-29T02:37:36.913Z,100231.80
2018-05-29T02:38:42.679Z,100230.81
2018-05-29T02:39:49.230Z,100232.81
2018-05-29T02:40:56.499Z,100231.97
2018-05-29T02:42:02.343Z,100230.00
2018-05-29T02:43:08.140Z,100236.91
2018-05-29T02:44:13.935Z,100229.05
2018-05-29T02:45:19.732Z,100229.75
2018-05-29T02:46:25.508Z,100234.73
2018-05-29T02:47:31.343Z,100235.65
2018-05-29T02:48:37.145Z,100234.52
2018-05-29T02:49:42.933Z,100238.73
2018-05-29T02:50:48.502Z,100238.73
2018-05-29T02:51:55.035Z,100239.86
2018-05-29T02:53:00.817Z,100242.53
2018-05-29T02:54:06.602Z,100239.12
2018-05-29T02:55:12.366Z,100240.24
2018-05-29T02:56:18.985Z,100244.17
2018-05-29T02:57:24.756Z,100237.72
2018-05-29T02:58:30.526Z,100239.47
2018-05-29T02:59:37.125Z,100241.64
2018-05-29T03:00:42.903Z,100239.99
2018-05-29T03:01:48.674Z,100247.43
2018-05-29T03:02:55.207Z,100236.77
2018-05-29T03:04:00.993Z,100238.80
2018-05-29T03:05:06.787Z,100245.92
2018-05-29T03:06:12.568Z,100241.84
2018-05-29T03:07:18.339Z,100245.08
2018-05-29T03:08:24.104Z,100246.55
2018-05-29T03:09:29.874Z,100239.20
2018-05-29T03:10:35.658Z,100236.81
2018-05-29T03:11:41.441Z,100234.05
2018-05-29T03:12:47.215Z,100238.44
2018-05-29T03:13:53.421Z,100232.37
2018-05-29T03:14:59.191Z,100230.64
2018-05-29T03:16:04.684Z,100230.39
2018-05-29T03:17:10.455Z,100231.62
2018-05-29T03:18:16.302Z,100236.33
2018-05-29T03:19:22.077Z,100238.81
2018-05-29T03:20:28.610Z,100233.55
2018-05-29T03:21:34.395Z,100236.35
2018-05-29T03:22:40.187Z,100231.51
2018-05-29T03:23:45.954Z,100235.09
2018-05-29T03:24:52.498Z,100232.23
2018-05-29T03:25:58.263Z,100231.81
2018-05-29T03:27:04.501Z,100233.22
2018-05-29T03:28:11.046Z,100229.40
2018-05-29T03:29:17.199Z,100235.33
2018-05-29T03:30:22.971Z,100233.50
2018-05-29T03:31:28.735Z,100236.17
2018-05-29T03:32:34.535Z,100234.06
2018-05-29T03:33:41.074Z,100236.73
2018-05-29T03:34:46.848Z,100236.31
2018-05-29T03:35:53.421Z,100237.27
2018-05-29T03:36:59.197Z,100236.48
2018-05-29T03:38:04.428Z,100231.93
2018-05-29T03:39:10.195Z,100229.80
2018-05-29T03:40:15.976Z,100229.80
2018-05-29T03:41:22.311Z,100228.81
2018-05-29T03:42:28.083Z,100235.91
2018-05-29T03:43:33.920Z,100229.73
2018-05-29T03:44:39.686Z,100236.61
2018-05-29T03:45:45.455Z,100236.72
2018-05-29T03:46:51.218Z,100238.94
2018-05-29T03:47:57.755Z,100238.91
2018-05-29T03:49:03.551Z,100240.24
2018-05-29T03:50:09.347Z,100238.48
2018-05-29T03:51:15.120Z,100240.10
2018-05-29T03:52:21.670Z,100236.45
2018-05-29T03:53:28.209Z,100238.53
2018-05-29T03:54:33.658Z,100236.52
2018-05-29T03:55:40.202Z,100241.41
2018-05-29T03:56:45.991Z,100243.45
2018-05-29T03:57:51.780Z,100237.58
2018-05-29T03:58:57.551Z,100242.25
2018-05-29T04:00:03.878Z,100233.58
2018-05-29T04:01:09.658Z,100237.44
2018-05-29T04:02:16.195Z,100242.15
2018-05-29T04:03:21.967Z,100230.20
2018-05-29T04:04:27.742Z,100236.39
2018-05-29T04:05:33.536Z,100237.13
2018-05-29T04:06:40.070Z,100238.75
2018-05-29T04:07:45.831Z,100239.45
2018-05-29T04:08:52.424Z,100236.64
2018-05-29T04:09:58.222Z,100233.23
2018-05-29T04:11:04.195Z,100241.70
2018-05-29T04:12:10.731Z,100240.33
2018-05-29T04:13:16.512Z,100240.12
2018-05-29T04:14:22.560Z,100239.20
2018-05-29T04:15:28.474Z,100242.50
2018-05-29T04:16:35.414Z,100240.12
2018-05-29T04:17:41.202Z,100245.31
2018-05-29T04:18:47.749Z,100241.45
2018-05-29T04:22:14.721Z,100242.05
2018-05-29T04:23:21.311Z,100241.98
2018-05-29T04:24:27.119Z,100236.75
2018-05-29T04:25:33.723Z,100242.78
2018-05-29T04:26:39.539Z,100241.28
2018-05-29T04:27:45.412Z,100240.92
2018-05-29T04:28:51.244Z,100245.73
2018-05-29T04:29:57.014Z,100239.77
2018-05-29T04:31:02.794Z,100246.02
2018-05-29T04:32:09.325Z,100246.54
2018-05-29T04:33:15.127Z,100249.28
2018-05-29T04:34:20.899Z,100243.95
2018-05-29T04:35:26.694Z,100247.03
2018-05-29T04:36:32.473Z,100245.98
2018-05-29T04:37:38.368Z,100255.25
2018-05-29T04:38:44.938Z,100253.92
2018-05-29T04:39:50.703Z,100253.08
2018-05-29T04:40:56.482Z,100262.77
2018-05-29T04:42:02.280Z,100258.98
2018-05-29T04:43:08.048Z,100259.08
2018-05-29T04:44:13.848Z,100253.07
2018-05-29T04:45:19.426Z,100249.97
2018-05-29T04:46:25.200Z,100245.94
2018-05-29T04:47:30.971Z,100250.64
2018-05-29T04:48:36.747Z,100251.20
2018-05-29T04:49:42.576Z,100249.90
2018-05-29T04:50:48.539Z,100252.78
2018-05-29T04:51:54.347Z,100251.86
2018-05-29T04:52:59.951Z,100253.66
2018-05-29T04:54:05.895Z,100254.07
2018-05-29T04:55:11.699Z,100251.75
2018-05-29T04:56:17.727Z,100251.61
2018-05-29T04:57:23.502Z,100251.81
2018-05-29T04:58:29.311Z,100246.96
2018-05-29T04:59:35.086Z,100243.72
2018-05-29T05:00:40.887Z,100238.88
2018-05-29T05:01:46.685Z,100237.75
2018-05-29T05:02:52.444Z,100235.43
2018-05-29T05:03:58.207Z,100242.25
2018-05-29T05:05:04.481Z,100240.63
2018-05-29T05:06:10.267Z,100235.43
2018-05-29T05:07:16.052Z,100241.25
2018-05-29T05:08:21.829Z,100237.61
2018-05-29T05:09:27.608Z,100240.66
2018-05-29T05:10:34.882Z,100242.91
2018-05-29T05:11:40.668Z,100242.86
2018-05-29T05:12:46.443Z,100247.84
2018-05-29T05:13:52.218Z,100246.84
2018-05-29T05:14:58.755Z,100244.97
2018-05-29T05:16:04.523Z,100240.62
2018-05-29T05:17:11.080Z,100242.20
2018-05-29T05:18:17.619Z,100254.30
2018-05-29T05:19:24.905Z,100247.52
2018-05-29T05:20:30.691Z,100247.80
2018-05-29T05:21:36.455Z,100248.16
2018-05-29T05:22:42.259Z,100248.04
2018-05-29T05:23:48.794Z,100246.43
2018-05-29T05:24:55.099Z,100245.31
2018-05-29T05:26:00.868Z,100245.33
2018-05-29T05:27:06.668Z,100247.36
2018-05-29T05:28:12.454Z,100252.45
2018-05-29T05:29:18.296Z,100244.70
2018-05-29T05:30:24.063Z,100250.49
2018-05-29T05:31:30.601Z,100248.16
2018-05-29T05:32:36.378Z,100249.44
2018-05-29T05:33:43.760Z,100249.12
2018-05-29T05:34:50.299Z,100252.28
2018-05-29T05:35:57.354Z,100252.34
2018-05-29T05:37:03.130Z,100248.91
2018-05-29T05:38:09.683Z,100246.92
2018-05-29T05:39:15.470Z,100248.20
2018-05-29T05:40:21.243Z,100248.79
2018-05-29T05:41:27.035Z,100245.47
2018-05-29T05:42:32.807Z,100243.45
2018-05-29T05:43:38.580Z,100243.64
2018-05-29T05:44:45.183Z,100249.30
2018-05-29T05:45:50.973Z,100245.65
2018-05-29T05:46:56.760Z,100240.64
2018-05-29T05:48:02.708Z,100245.44
2018-05-29T05:49:08.501Z,100238.98
2018-05-29T05:50:15.371Z,100239.10
2018-05-29T05:51:21.175Z,100242.05
2018-05-29T05:52:26.954Z,100239.03
2018-05-29T05:53:32.732Z,100244.16
2018-05-29T05:54:38.528Z,100239.49
2018-05-29T05:55:44.333Z,100236.08
2018-05-29T05:56:50.107Z,100243.57
2018-05-29T05:57:55.884Z,100242.98
2018-05-29T05:59:01.655Z,100241.28
2018-05-29T06:00:07.197Z,100241.25
2018-05-29T06:01:13.035Z,100242.67
2018-05-29T06:02:18.810Z,100237.47
2018-05-29T06:03:24.604Z,100239.22
2018-05-29T06:04:31.173Z,100241.16
2018-05-29T06:05:37.705Z,100239.94
2018-05-29T06:06:44.356Z,100236.96
2018-05-29T06:07:50.147Z,100233.63
2018-05-29T06:08:55.940Z,100238.84
2018-05-29T06:10:02.485Z,100236.05
2018-05-29T06:11:08.323Z,100232.61
2018-05-29T06:12:14.127Z,100233.35
2018-05-29T06:13:19.938Z,100233.17
2018-05-29T06:14:25.758Z,100225.72
2018-05-29T06:15:31.530Z,100231.58
2018-05-29T06:16:38.071Z,100233.95
2018-05-29T06:17:43.871Z,100229.82
2018-05-29T06:18:49.664Z,100227.84
2018-05-29T06:19:56.208Z,100227.53
2018-05-29T06:21:01.979Z,100228.39
2018-05-29T06:22:08.528Z,100225.34
2018-05-29T06:23:15.859Z,100225.81
2018-05-29T06:24:23.135Z,100227.81
2018-05-29T06:25:29.851Z,100227.39
2018-05-29T06:26:37.359Z,100224.59
2018-05-29T06:27:44.530Z,100227.25
2018-05-29T06:28:51.095Z,100227.66
2018-05-29T06:29:56.880Z,100227.23
2018-05-29T06:31:02.648Z,100219.34
2018-05-29T06:32:08.427Z,100213.13
2018-05-29T06:33:13.872Z,100223.92
2018-05-29T06:34:19.668Z,100221.22
2018-05-29T06:35:26.968Z,100218.98
2018-05-29T06:36:33.513Z,100219.28
2018-05-29T06:37:40.887Z,100217.92
2018-05-29T06:38:46.708Z,100219.45
2018-05-29T06:39:52.692Z,100220.12
2018-05-29T06:40:59.244Z,100221.23
2018-05-29T06:42:05.463Z,100223.30
2018-05-29T06:43:11.248Z,100216.77
2018-05-29T06:44:17.795Z,100221.76
2018-05-29T06:45:24.372Z,100216.46
2018-05-29T06:46:30.919Z,100221.17
2018-05-29T06:47:37.483Z,100222.15
2018-05-29T06:48:44.048Z,100219.86
2018-05-29T06:49:50.594Z,100217.58
2018-05-29T06:50:57.194Z,100213.45
2018-05-29T06:52:03.020Z,100213.87
2018-05-29T06:53:08.810Z,100209.39
2018-05-29T06:54:14.830Z,100206.55
2018-05-29T06:55:20.612Z,100205.89
2018-05-29T06:56:26.416Z,100210.06
2018-05-29T06:57:32.209Z,100206.98
2018-05-29T06:58:37.984Z,100212.03
2018-05-29T06:59:43.512Z,100205.12
2018-05-29T07:00:50.165Z,100206.67
2018-05-29T07:01:55.691Z,100211.32
2018-05-29T07:03:01.212Z,100205.11
2018-05-29T07:04:07.496Z,100209.23
2018-05-29T07:05:13.199Z,100209.45
2018-05-29T07:06:19.482Z,100208.36
2018-05-29T07:07:25.012Z,100208.81
2018-05-29T07:08:30.530Z,100205.12
2018-05-29T07:09:36.800Z,100207.09
2018-05-29T07:10:42.305Z,100208.18
2018-05-29T07:11:48.583Z,100206.68
2018-05-29T07:12:54.118Z,100200.40
2018-05-29T07:13:59.624Z,100198.97
2018-05-29T07:15:05.128Z,100193.89
2018-05-29T07:16:10.631Z,100194.67
2018-05-29T07:17:16.132Z,100191.95
2018-05-29T07:18:23.283Z,100184.98
2018-05-29T07:19:28.810Z,100189.73
2018-05-29T07:20:34.361Z,100194.66
2018-05-29T07:21:39.861Z,100193.20
2018-05-29T07:22:46.124Z,100180.63
2018-05-29T07:23:51.664Z,100187.65
2018-05-29T07:24:57.177Z,100189.72
2018-05-29T07:26:02.692Z,100190.45
2018-05-29T07:27:08.966Z,100187.40
2018-05-29T07:28:14.463Z,100182.25
2018-05-29T07:29:20.060Z,100175.47
2018-05-29T07:30:25.559Z,100181.20
2018-05-29T07:31:31.829Z,100178.67
2018-05-29T07:32:37.337Z,100178.63
2018-05-29T07:33:43.607Z,100176.80
2018-05-29T07:34:49.913Z,100173.80
2018-05-29T07:35:55.427Z,100174.06
2018-05-29T07:37:00.952Z,100172.56
2018-05-29T07:38:06.455Z,100168.58
2018-05-29T07:39:12.752Z,100173.11
2018-05-29T07:40:18.295Z,100173.09
2018-05-29T07:41:23.798Z,100183.15
2018-05-29T07:42:30.076Z,100174.50
2018-05-29T07:43:35.588Z,100168.31
2018-05-29T07:44:41.112Z,100170.53
2018-05-29T07:45:47.413Z,100167.74
2018-05-29T07:46:52.926Z,100167.16
2018-05-29T07:47:58.447Z,100165.80
2018-05-29T07:49:04.751Z,100170.20
2018-05-29T07:50:10.254Z,100168.83
2018-05-29T07:51:15.783Z,100166.22
2018-05-29T07:52:21.300Z,100166.80
2018-05-29T07:53:27.575Z,100170.48
2018-05-29T07:54:32.881Z,100168.83
2018-05-29T07:55:39.156Z,100166.91
2018-05-29T07:56:44.672Z,100162.66
2018-05-29T07:57:50.945Z,100162.83
2018-05-29T07:58:56.445Z,100157.87
2018-05-29T08:00:02.171Z,100160.89
2018-05-29T08:01:07.693Z,100160.07
2018-05-29T08:02:13.227Z,100163.19
2018-05-29T08:03:18.735Z,100159.73
2018-05-29T08:04:24.250Z,100156.95
2018-05-29T08:05:30.343Z,100156.30
2018-05-29T08:06:35.843Z,100152.05
2018-05-29T08:07:41.372Z,100151.94
2018-05-29T08:08:47.646Z,100152.98
2018-05-29T08:09:53.148Z,100153.40
2018-05-29T08:10:59.435Z,100151.34
2018-05-29T08:12:04.627Z,100147.59
2018-05-29T08:13:10.147Z,100149.17
2018-05-29T08:14:15.664Z,100147.37
2018-05-29T08:15:21.192Z,100146.36
2018-05-29T08:16:26.699Z,100149.98
2018-05-29T08:17:32.205Z,100145.20
2018-05-29T08:18:38.554Z,100145.66
2018-05-29T08:19:44.242Z,100137.86
2018-05-29T08:20:49.747Z,100144.66
2018-05-29T08:21:55.797Z,100143.45
2018-05-29T08:23:02.116Z,100141.73
2018-05-29T08:24:07.656Z,100140.73
2018-05-29T08:25:13.160Z,100142.21
2018-05-29T08:26:18.927Z,100135.91
2018-05-29T08:27:24.437Z,100140.31
2018-05-29T08:28:29.929Z,100138.60
2018-05-29T08:29:36.469Z,100137.45
2018-05-29T08:30:41.971Z,100130.84
2018-05-29T08:31:47.494Z,100132.99
2018-05-29T08:32:53.001Z,100127.11
2018-05-29T08:33:58.505Z,100133.09
2018-05-29T08:35:03.799Z,100122.98
2018-05-29T08:36:09.307Z,100139.21
2018-05-29T08:37:15.587Z,100128.64
2018-05-29T08:38:21.096Z,100134.77
2018-05-29T08:39:27.410Z,100122.23
2018-05-29T08:40:33.117Z,100120.11
2018-05-29T08:41:38.293Z,100116.33
2018-05-29T08:42:43.800Z,100118.52
2018-05-29T08:43:49.306Z,100114.61
2018-05-29T08:44:54.804Z,100119.89
2018-05-29T08:46:00.352Z,100112.80
2018-05-29T08:47:05.862Z,100110.42
2018-05-29T08:48:11.364Z,100114.05
2018-05-29T08:49:17.320Z,100112.64
2018-05-29T08:50:22.822Z,100107.84
2018-05-29T08:51:28.360Z,100111.44
2018-05-29T08:52:34.638Z,100110.91
2018-05-29T08:53:40.139Z,100109.58
2018-05-29T08:54:46.414Z,100110.17
2018-05-29T08:55:51.678Z,100108.93
2018-05-29T08:56:57.212Z,100105.20
2018-05-29T08:58:02.710Z,100104.20
2018-05-29T08:59:08.221Z,100109.72
2018-05-29T09:00:14.517Z,100109.56
2018-05-29T09:01:20.038Z,100110.84
2018-05-29T09:02:26.330Z,100113.66
2018-05-29T09:03:31.849Z,100115.19
2018-05-29T09:04:37.359Z,100105.69
2018-05-29T09:05:43.624Z,100111.81
2018-05-29T09:06:49.408Z,100101.66
2018-05-29T09:07:54.942Z,100102.17
2018-05-29T09:09:00.452Z,100107.40
2018-05-29T09:10:05.642Z,100110.08
2018-05-29T09:11:11.913Z,100114.47
2018-05-29T09:12:17.425Z,100113.67
2018-05-29T09:13:22.949Z,100106.59
2018-05-29T09:14:28.461Z,100104.58
2018-05-29T09:15:33.962Z,100108.37
2018-05-29T09:16:39.472Z,100105.23
2018-05-29T09:17:45.734Z,100101.00
2018-05-29T09:18:52.023Z,100100.39
2018-05-29T09:19:57.572Z,100101.49
2018-05-29T09:21:03.327Z,100107.45
2018-05-29T09:22:08.879Z,100106.08
2018-05-29T09:23:14.553Z,100103.64
2018-05-29T09:24:20.099Z,100105.27
2018-05-29T09:25:25.603Z,100105.34
2018-05-29T09:26:31.870Z,100104.23
2018-05-29T09:27:38.145Z,100098.83
2018-05-29T09:28:43.652Z,100101.73
2018-05-29T09:29:50.032Z,100108.33
2018-05-29T09:30:55.664Z,100099.24
2018-05-29T09:32:01.194Z,100109.69
2018-05-29T09:33:07.658Z,100096.92
2018-05-29T09:34:13.167Z,100104.92
2018-05-29T09:35:19.463Z,100099.34
2018-05-29T09:36:24.976Z,100104.34
2018-05-29T09:37:30.514Z,100101.21
2018-05-29T09:38:36.311Z,100096.88
2018-05-29T09:39:41.839Z,100097.72
2018-05-29T09:40:47.406Z,100094.52
2018-05-29T09:41:52.951Z,100105.27
2018-05-29T09:42:59.231Z,100103.19
2018-05-29T09:44:04.755Z,100104.60
2018-05-29T09:45:10.303Z,100106.55
2018-05-29T09:46:15.839Z,100096.77
2018-05-29T09:47:22.107Z,100091.36
2018-05-29T09:48:27.615Z,100103.10
2018-05-29T09:49:33.893Z,100098.45
2018-05-29T09:50:39.413Z,100085.34
2018-05-29T09:51:44.943Z,100092.67
2018-05-29T09:52:51.246Z,100093.08
2018-05-29T09:53:56.935Z,100092.76
2018-05-29T09:55:03.208Z,100088.58
2018-05-29T09:56:08.723Z,100083.96
2018-05-29T09:57:15.021Z,100089.61
2018-05-29T09:58:20.524Z,100092.28
2018-05-29T09:59:26.104Z,100088.77
2018-05-29T10:00:37.029Z,100080.86
2018-05-29T10:01:42.539Z,100082.92
2018-05-29T10:02:48.863Z,100084.00
2018-05-29T10:03:54.379Z,100080.25
2018-05-29T10:04:59.887Z,100075.19
2018-05-29T10:06:05.396Z,100084.40
2018-05-29T10:07:10.918Z,100082.48
2018-05-29T10:08:17.409Z,100073.22
2018-05-29T10:09:22.916Z,100077.72
2018-05-29T10:10:28.441Z,100075.17
2018-05-29T10:11:34.712Z,100079.59
2018-05-29T10:12:40.221Z,100081.95
2018-05-29T10:13:46.519Z,100066.22
2018-05-29T10:14:52.018Z,100070.59
2018-05-29T10:15:58.288Z,100058.52
2018-05-29T10:17:03.820Z,100057.42
2018-05-29T10:18:10.083Z,100063.44
2018-05-29T10:19:15.661Z,100065.66
2018-05-29T10:20:21.360Z,100067.16
2018-05-29T10:21:26.868Z,100067.97
2018-05-29T10:22:32.376Z,100061.52
2018-05-29T10:23:37.891Z,100055.37
2018-05-29T10:24:43.230Z,100059.06
2018-05-29T10:25:48.735Z,100063.96
2018-05-29T10:26:54.072Z,100061.80
2018-05-29T10:27:59.579Z,100054.61
2018-05-29T10:29:05.086Z,100061.84
2018-05-29T10:30:10.625Z,100053.14
2018-05-29T10:31:16.127Z,100047.25
2018-05-29T10:32:21.635Z,100057.11
2018-05-29T10:33:27.907Z,100055.20
2018-05-29T10:34:33.428Z,100050.92
2018-05-29T10:35:38.972Z,100053.91
2018-05-29T10:36:44.496Z,100053.33
2018-05-29T10:37:50.768Z,100056.19
2018-05-29T10:38:56.395Z,100045.86
2018-05-29T10:40:01.905Z,100052.09
2018-05-29T10:41:07.423Z,100048.76
2018-05-29T10:42:13.965Z,100045.17
2018-05-29T10:43:19.472Z,100049.60
2018-05-29T10:44:26.018Z,100044.66
2018-05-29T10:45:33.296Z,100044.31
2018-05-29T10:46:39.128Z,100038.95
2018-05-29T10:47:44.915Z,100037.09
2018-05-29T10:48:50.699Z,100034.45
2018-05-29T10:49:56.483Z,100037.47
2018-05-29T10:51:03.021Z,100031.92
2018-05-29T10:52:09.588Z,100040.66
2018-05-29T10:53:15.369Z,100024.27
2018-05-29T10:54:21.165Z,100033.37
2018-05-29T10:55:26.968Z,100036.98
2018-05-29T10:56:32.749Z,100032.00
2018-05-29T10:57:38.559Z,100033.34
2018-05-29T10:58:44.335Z,100023.52
2018-05-29T10:59:50.118Z,100020.23
2018-05-29T11:00:55.905Z,100018.76
2018-05-29T11:02:01.676Z,100019.25
2018-05-29T11:03:07.494Z,100020.16
2018-05-29T11:04:13.275Z,100019.73
2018-05-29T11:05:19.823Z,100020.80
2018-05-29T11:06:25.606Z,100011.80
2018-05-29T11:07:31.564Z,100008.19
2018-05-29T11:08:37.511Z,100019.06
2018-05-29T11:09:43.457Z,100014.35
2018-05-29T11:10:49.436Z,100010.16
2018-05-29T11:11:55.349Z,100016.72
2018-05-29T11:13:01.396Z,100018.61
2018-05-29T11:14:07.281Z,100013.59
2018-05-29T11:15:13.190Z,100008.78
2018-05-29T11:16:19.063Z,100009.08
2018-05-29T11:17:24.954Z,100015.20
2018-05-29T11:18:30.932Z,100011.86
2018-05-29T11:19:36.943Z,100002.03
2018-05-29T11:20:44.055Z,99997.30
2018-05-29T11:21:50.002Z,100006.99
2018-05-29T11:22:55.908Z,100014.78
2018-05-29T11:24:01.877Z,100011.30
2018-05-29T11:25:07.928Z,100009.39
2018-05-29T11:26:13.890Z,99999.67
2018-05-29T11:27:19.981Z,100007.44
2018-05-29T11:28:25.988Z,99996.91
2018-05-29T11:29:31.895Z,100000.03
2018-05-29T11:30:37.763Z,99992.30
2018-05-29T11:31:43.467Z,99992.61
2018-05-29T11:32:50.122Z,99991.77
2018-05-29T11:33:56.753Z,99991.38
2018-05-29T11:35:02.696Z,99990.16
2018-05-29T11:36:08.577Z,99983.94
2018-05-29T11:37:15.442Z,99990.18
2018-05-29T11:38:21.280Z,99982.97
2018-05-29T11:39:28.224Z,99980.23
2018-05-29T11:40:34.937Z,99978.33
2018-05-29T11:41:40.868Z,99980.38
2018-05-29T11:42:47.531Z,99980.02
2018-05-29T11:43:54.261Z,99977.13
2018-05-29T11:45:00.248Z,99977.94
2018-05-29T11:46:07.077Z,99978.81
2018-05-29T11:47:13.023Z,99978.17
2018-05-29T11:48:19.240Z,99973.91
2018-05-29T11:49:25.261Z,99965.75
2018-05-29T11:50:31.930Z,99962.56
2018-05-29T11:51:38.028Z,99968.05
2018-05-29T11:52:44.053Z,99967.60
2018-05-29T11:53:50.239Z,99953.42
2018-05-29T11:54:56.441Z,99953.34
2018-05-29T11:56:02.459Z,99967.71
2018-05-29T11:57:09.191Z,99974.09
2018-05-29T11:58:15.333Z,99963.28
2018-05-29T11:59:21.321Z,99953.90
2018-05-29T12:00:28.239Z,99957.00
2018-05-29T12:01:34.529Z,99964.34
2018-05-29T12:02:41.274Z,99953.98
2018-05-29T12:03:47.323Z,99950.34
2018-05-29T12:04:53.220Z,99949.70
2018-05-29T12:05:59.213Z,99953.14
2018-05-29T12:07:05.201Z,99948.70
2018-05-29T12:08:11.824Z,99951.66
2018-05-29T12:09:19.462Z,99946.03
2018-05-29T12:10:26.580Z,99954.84
2018-05-29T12:11:33.196Z,99947.45
2018-05-29T12:12:39.195Z,99949.49
2018-05-29T12:13:45.134Z,99950.86
2018-05-29T12:14:51.046Z,99949.48
2018-05-29T12:15:56.991Z,99942.31
2018-05-29T12:17:02.836Z,99941.06
2018-05-29T12:18:08.815Z,99935.82
2018-05-29T12:19:14.862Z,99933.11
2018-05-29T12:20:20.809Z,99938.02
2018-05-29T12:21:26.754Z,99930.38
2018-05-29T12:22:32.701Z,99931.81
2018-05-29T12:23:38.583Z,99935.39
2018-05-29T12:24:44.531Z,99930.45
2018-05-29T12:25:50.512Z,99926.36
2018-05-29T12:26:56.524Z,99920.98
2018-05-29T12:28:02.466Z,99920.92
2018-05-29T12:29:08.522Z,99924.63
2018-05-29T12:30:15.221Z,99919.16
2018-05-29T12:31:21.163Z,99916.36
2018-05-29T12:32:27.185Z,99924.17
2018-05-29T12:33:33.881Z,99922.10
2018-05-29T12:34:39.845Z,99918.22
2018-05-29T12:35:45.842Z,99920.98
2018-05-29T12:36:52.811Z,99915.54